Terminal Aerodrome Forecast
Issued by NWS

Home | Current Version | Previous Version | Text Only | Print | Product List | Glossary On
Versions: 1 2 3 4 5 6 7 8 9 10 11 12 13 14 15 16 17 18 19 20 21 22 23 24 25 26
983
FTUS43 KGRR 211849 AAA
TAFMKG
TAF AMD
KMKG 211849Z 2119/2218 16011KT P6SM SCT012
     FM220700 17003KT 2SM BR OVC015
     FM220800 17002KT 1/2SM FG VV002
     FM221600 04005KT 4SM BR OVC007=

USA.gov is the U.S. government's official web portal to all federal, state and local government web resources and services.